Terminal Aerodrome Forecast
Issued by NWS Binghamton, NY

Home | Current Version | Previous Version | Text Only | Print | Product List | Glossary On
Versions: 1 2 3 4 5 6 7 8 9 10 11 12 13 14 15 16 17 18 19 20 21 22
000
FTUS41 KBGM 221137
TAFBGM
TAF
KBGM 221137Z 2212/2312 20010KT P6SM SCT080
      TEMPO 2212/2213 5SM BR
     FM221400 20010G18KT P6SM SCT040 BKN080
     FM221700 22012G22KT P6SM BKN040
      TEMPO 2220/2224 VRB35KT 3SM +TSRA OVC022CB
     FM230000 25010KT 5SM BR BKN025
     FM230600 29008KT P6SM SCT080=

USA.gov is the U.S. government's official web portal to all federal, state and local government web resources and services.